createdAt,value
2023-01-13T00:01:52.442Z,0.50
2023-01-13T00:04:56.566Z,0.43
2023-01-13T00:08:00.167Z,0.40
2023-01-13T00:11:04.093Z,0.50
2023-01-13T00:14:08.009Z,0.40
2023-01-13T00:17:12.180Z,0.38
2023-01-13T00:20:16.747Z,0.40
2023-01-13T00:23:20.752Z,0.45
2023-01-13T00:26:27.483Z,0.50
2023-01-13T00:29:31.249Z,0.30
2023-01-13T00:32:35.404Z,0.50
2023-01-13T00:35:39.854Z,0.55
2023-01-13T00:38:44.551Z,0.30
2023-01-13T00:42:07.553Z,0.35
2023-01-13T00:45:11.517Z,0.35
2023-01-13T00:48:15.820Z,0.50
2023-01-13T00:51:21.700Z,0.30
2023-01-13T00:54:25.520Z,0.40
2023-01-13T00:57:29.642Z,0.28
2023-01-13T01:00:33.710Z,0.30
2023-01-13T01:03:38.249Z,0.30
2023-01-13T01:06:42.199Z,0.28
2023-01-13T01:09:46.504Z,0.32
2023-01-13T01:12:50.968Z,0.30
2023-01-13T01:15:54.811Z,0.30
2023-01-13T01:18:59.945Z,0.40
2023-01-13T01:22:03.989Z,0.50
2023-01-13T01:25:08.798Z,0.30
2023-01-13T01:28:13.145Z,0.17
2023-01-13T01:31:19.993Z,0.30
2023-01-13T01:34:24.333Z,0.25
2023-01-13T01:37:28.195Z,0.30
2023-01-13T01:40:32.465Z,0.30
2023-01-13T01:44:06.788Z,0.25
2023-01-13T01:47:12.981Z,0.20
2023-01-13T01:50:18.499Z,0.22
2023-01-13T01:53:25.792Z,0.30
2023-01-13T01:56:30.243Z,0.13
2023-01-13T01:59:36.065Z,0.40
2023-01-13T02:02:43.489Z,0.20
2023-01-13T02:05:47.660Z,0.30
2023-01-13T02:08:52.926Z,0.40
2023-01-13T02:12:15.727Z,0.35
2023-01-13T02:15:35.451Z,0.30
2023-01-13T02:19:08.571Z,0.30
2023-01-13T02:22:27.352Z,0.30
2023-01-13T02:26:05.290Z,0.17
2023-01-13T02:29:55.997Z,0.13
2023-01-13T02:33:38.223Z,0.30
2023-01-13T02:37:09.390Z,0.30
2023-01-13T02:40:17.193Z,0.28
2023-01-13T02:43:49.167Z,0.40
2023-01-13T02:47:22.562Z,0.30
2023-01-13T02:50:37.343Z,0.30
2023-01-13T02:53:59.570Z,0.17
2023-01-13T02:57:08.265Z,0.65
2023-01-13T03:00:13.913Z,0.20
2023-01-13T03:03:18.044Z,0.15
2023-01-13T03:06:36.730Z,0.32
2023-01-13T03:09:49.980Z,0.20
2023-01-13T03:13:07.578Z,0.20
2023-01-13T03:16:56.457Z,0.10
2023-01-13T03:20:15.567Z,0.20
2023-01-13T03:23:29.987Z,0.10
2023-01-13T03:26:40.323Z,0.20
2023-01-13T03:29:54.008Z,0.38
2023-01-13T03:33:25.782Z,0.20
2023-01-13T03:36:31.408Z,0.30
2023-01-13T03:39:39.796Z,0.30
2023-01-13T03:43:08.059Z,0.10
2023-01-13T03:46:26.668Z,0.10
2023-01-13T03:49:37.769Z,0.15
2023-01-13T03:52:50.619Z,0.20
2023-01-13T03:56:02.692Z,0.20
2023-01-13T03:59:11.703Z,0.20
2023-01-13T04:02:43.581Z,0.40
2023-01-13T04:05:52.348Z,0.25
2023-01-13T04:09:03.065Z,0.40
2023-01-13T04:12:56.734Z,0.50
2023-01-13T04:16:01.072Z,0.30
2023-01-13T04:19:06.457Z,0.30
2023-01-13T04:22:10.473Z,0.57
2023-01-13T04:25:14.761Z,0.20
2023-01-13T04:28:19.231Z,0.38
2023-01-13T04:31:23.217Z,0.30
2023-01-13T04:34:28.446Z,0.20
2023-01-13T04:37:33.280Z,0.30
2023-01-13T04:40:37.639Z,0.32
2023-01-13T04:43:41.605Z,0.50
2023-01-13T04:46:45.716Z,0.45
2023-01-13T04:49:50.017Z,0.30
2023-01-13T04:52:54.710Z,0.30
2023-01-13T04:55:58.913Z,0.32
2023-01-13T04:59:03.129Z,0.40
2023-01-13T05:02:09.005Z,0.40
2023-01-13T05:05:13.265Z,0.50
2023-01-13T05:08:17.584Z,0.52
2023-01-13T05:11:40.260Z,0.80
2023-01-13T05:15:02.931Z,0.43
2023-01-13T05:18:07.187Z,0.50
2023-01-13T05:21:31.273Z,0.43
2023-01-13T05:24:53.350Z,0.32
2023-01-13T05:27:59.273Z,0.65
2023-01-13T05:31:03.217Z,0.28
2023-01-13T05:34:07.029Z,0.30
2023-01-13T05:37:13.139Z,0.30
2023-01-13T05:40:37.339Z,0.77
2023-01-13T05:43:41.371Z,0.25
2023-01-13T05:46:45.596Z,0.30
2023-01-13T05:49:49.446Z,0.30
2023-01-13T05:52:53.460Z,0.40
2023-01-13T05:55:57.997Z,0.40
2023-01-13T05:59:01.935Z,0.40
2023-01-13T06:02:05.614Z,0.40
2023-01-13T06:05:09.589Z,0.40
2023-01-13T06:08:14.685Z,0.40
2023-01-13T06:11:18.899Z,0.40
2023-01-13T06:14:23.186Z,0.40
2023-01-13T06:17:27.025Z,0.30
2023-01-13T06:20:31.953Z,0.47
2023-01-13T06:23:38.520Z,0.50
2023-01-13T06:26:42.786Z,0.47
2023-01-13T06:29:47.364Z,0.55
2023-01-13T06:32:57.313Z,0.60
2023-01-13T06:36:06.349Z,0.40
2023-01-13T06:39:13.852Z,0.60
2023-01-13T06:42:36.426Z,0.60
2023-01-13T06:45:42.984Z,0.60
2023-01-13T06:48:46.817Z,0.40
2023-01-13T06:51:50.571Z,0.55
2023-01-13T06:54:54.660Z,0.70
2023-01-13T06:57:58.851Z,0.52
2023-01-13T07:01:03.282Z,0.40
2023-01-13T07:04:07.395Z,0.20
2023-01-13T07:07:12.389Z,0.40
2023-01-13T07:10:22.313Z,0.65
2023-01-13T07:13:44.676Z,0.63
2023-01-13T07:16:48.858Z,0.80
2023-01-13T07:19:53.189Z,0.70
2023-01-13T07:22:57.863Z,0.35
2023-01-13T07:26:02.035Z,0.68
2023-01-13T07:29:06.215Z,1.00
2023-01-13T07:32:10.359Z,0.70
2023-01-13T07:35:14.779Z,1.38
2023-01-13T07:38:19.021Z,0.90
2023-01-13T07:41:41.993Z,2.10
2023-01-13T07:44:46.209Z,0.63
2023-01-13T07:47:52.632Z,0.40
2023-01-13T07:50:56.542Z,0.60
2023-01-13T07:54:00.816Z,0.57
2023-01-13T07:57:05.034Z,0.50
2023-01-13T08:00:12.062Z,0.70
2023-01-13T08:03:17.479Z,0.82
2023-01-13T08:06:21.908Z,0.68
2023-01-13T08:09:25.964Z,0.73
2023-01-13T08:12:52.198Z,0.70
2023-01-13T08:16:05.957Z,0.50
2023-01-13T08:19:10.025Z,1.00
2023-01-13T08:22:14.200Z,0.80
2023-01-13T08:25:18.238Z,1.10
2023-01-13T08:28:24.101Z,0.82
2023-01-13T08:31:28.423Z,0.80
2023-01-13T08:34:32.853Z,1.20
2023-01-13T08:37:36.830Z,0.70
2023-01-13T08:40:40.940Z,0.68
2023-01-13T08:43:45.020Z,0.73
2023-01-13T08:46:49.695Z,0.50
2023-01-13T08:49:53.928Z,0.90
2023-01-13T08:52:58.108Z,0.77
2023-01-13T08:56:02.400Z,0.70
2023-01-13T08:59:09.761Z,0.70
2023-01-13T09:02:19.512Z,0.68
2023-01-13T09:05:23.539Z,0.40
2023-01-13T09:08:27.689Z,0.60
2023-01-13T09:11:55.718Z,1.08
2023-01-13T09:15:00.019Z,0.70
2023-01-13T09:18:04.375Z,0.60
2023-01-13T09:21:12.461Z,0.47
2023-01-13T09:24:16.387Z,0.70
2023-01-13T09:27:20.950Z,0.80
2023-01-13T09:30:24.918Z,0.60
2023-01-13T09:33:58.525Z,0.80
2023-01-13T09:37:04.065Z,0.70
2023-01-13T09:40:17.335Z,1.52
2023-01-13T09:43:44.582Z,0.70
2023-01-13T09:46:56.690Z,0.38
2023-01-13T09:50:28.635Z,0.70
2023-01-13T09:53:37.587Z,0.90
2023-01-13T09:56:42.217Z,0.77
2023-01-13T09:59:46.480Z,0.73
2023-01-13T10:03:18.260Z,0.90
2023-01-13T10:06:28.158Z,0.88
2023-01-13T10:09:53.112Z,0.70
2023-01-13T10:13:15.350Z,0.80
2023-01-13T10:16:44.696Z,3.28
2023-01-13T10:19:55.923Z,2.20
2023-01-13T10:23:38.923Z,1.00
2023-01-13T10:27:02.101Z,0.90
2023-01-13T10:30:19.474Z,0.95
2023-01-13T10:33:28.339Z,1.08
2023-01-13T10:36:32.341Z,1.15
2023-01-13T10:39:56.632Z,1.00
2023-01-13T10:43:08.287Z,0.80
2023-01-13T10:46:17.936Z,0.88
2023-01-13T10:49:32.879Z,0.80
2023-01-13T10:52:42.919Z,0.80
2023-01-13T10:55:59.739Z,1.00
2023-01-13T10:59:26.928Z,1.13
2023-01-13T11:02:36.058Z,1.10
2023-01-13T11:05:40.580Z,0.90
2023-01-13T11:08:47.323Z,0.90
2023-01-13T11:11:55.786Z,1.00
2023-01-13T11:15:04.179Z,0.90
2023-01-13T11:18:18.020Z,0.90
2023-01-13T11:21:28.165Z,0.88
2023-01-13T11:24:44.928Z,1.00
2023-01-13T11:27:57.694Z,1.30
2023-01-13T11:31:09.695Z,0.80
2023-01-13T11:34:17.823Z,1.10
2023-01-13T11:37:30.603Z,1.10
2023-01-13T11:40:38.797Z,0.88
2023-01-13T11:43:52.702Z,1.10
2023-01-13T11:50:00.777Z,0.80
2023-01-13T11:53:23.241Z,1.10
2023-01-13T11:56:58.788Z,0.90
2023-01-13T12:00:17.315Z,0.93
2023-01-13T12:03:31.019Z,0.90
2023-01-13T12:06:38.577Z,1.00
2023-01-13T12:09:48.051Z,0.93
2023-01-13T12:13:11.097Z,1.10
2023-01-13T12:16:23.612Z,1.13
2023-01-13T12:19:30.759Z,1.10
2023-01-13T12:22:36.988Z,1.02
2023-01-13T12:25:45.505Z,1.10
2023-01-13T12:29:14.778Z,1.20
2023-01-13T12:32:25.986Z,1.10
2023-01-13T12:35:41.741Z,1.02
2023-01-13T12:38:49.723Z,1.38
2023-01-13T12:42:24.423Z,0.90
2023-01-13T12:45:30.629Z,0.90
2023-01-13T12:48:55.199Z,1.20
2023-01-13T12:52:15.437Z,1.15
2023-01-13T12:55:21.481Z,1.73
2023-01-13T12:58:28.443Z,1.02
2023-01-13T13:01:37.224Z,1.05
2023-01-13T13:04:48.127Z,1.05
2023-01-13T13:08:01.211Z,1.00
2023-01-13T13:11:33.158Z,0.90
2023-01-13T13:14:37.329Z,0.80
2023-01-13T13:17:42.304Z,0.82
2023-01-13T13:21:04.681Z,0.77
2023-01-13T13:24:11.028Z,0.90
2023-01-13T13:27:27.851Z,0.80
2023-01-13T13:30:37.406Z,0.70
2023-01-13T13:33:56.779Z,1.10
2023-01-13T13:37:22.675Z,0.70
2023-01-13T13:40:47.815Z,0.88
2023-01-13T13:44:10.425Z,0.90
2023-01-13T13:47:14.935Z,0.90
2023-01-13T13:50:20.833Z,0.75
2023-01-13T13:53:32.193Z,0.90
2023-01-13T13:56:42.064Z,1.10
2023-01-13T13:59:53.861Z,1.20
2023-01-13T14:03:05.824Z,1.00
2023-01-13T14:06:22.601Z,1.00
2023-01-13T14:09:28.855Z,1.23
2023-01-13T14:12:37.980Z,1.13
2023-01-13T14:15:42.457Z,1.00
2023-01-13T14:18:48.146Z,1.27
2023-01-13T14:21:53.594Z,1.10
2023-01-13T14:24:58.504Z,0.98
2023-01-13T14:28:30.097Z,1.20
2023-01-13T14:31:34.452Z,1.23
2023-01-13T14:34:38.872Z,1.10
2023-01-13T14:37:44.084Z,1.20
2023-01-13T14:40:48.168Z,1.00
2023-01-13T14:43:56.321Z,1.30
2023-01-13T14:47:16.072Z,1.20
2023-01-13T14:50:28.103Z,1.50
2023-01-13T14:53:43.657Z,1.10
2023-01-13T14:56:53.809Z,1.15
2023-01-13T14:59:58.140Z,1.20
2023-01-13T15:03:08.041Z,1.10
2023-01-13T15:06:24.351Z,1.10
2023-01-13T15:09:34.770Z,1.42
2023-01-13T15:12:40.644Z,0.98
2023-01-13T15:15:50.880Z,1.10
2023-01-13T15:18:56.412Z,1.20
2023-01-13T15:22:00.419Z,2.10
2023-01-13T15:25:05.099Z,1.10
2023-01-13T15:28:21.962Z,1.20
2023-01-13T15:31:28.970Z,1.50
2023-01-13T15:34:33.511Z,1.40
2023-01-13T15:37:37.874Z,1.48
2023-01-13T15:40:43.210Z,1.60
2023-01-13T15:44:05.843Z,1.70
2023-01-13T15:47:10.270Z,1.48
2023-01-13T15:50:16.469Z,1.70
2023-01-13T15:53:20.430Z,1.92
2023-01-13T15:56:26.634Z,1.80
2023-01-13T15:59:30.481Z,1.30
2023-01-13T16:02:34.545Z,1.67
2023-01-13T16:05:39.979Z,1.50
2023-01-13T16:08:44.045Z,1.50
2023-01-13T16:11:48.308Z,1.85
2023-01-13T16:14:51.861Z,1.63
2023-01-13T16:17:58.155Z,1.70
2023-01-13T16:21:02.035Z,1.50
2023-01-13T16:24:06.314Z,1.40
2023-01-13T16:27:16.648Z,1.67
2023-01-13T16:30:24.579Z,1.70
2023-01-13T16:33:28.478Z,1.70
2023-01-13T16:36:35.365Z,1.60
2023-01-13T16:39:39.523Z,1.60
2023-01-13T16:42:43.552Z,2.00
2023-01-13T16:45:47.288Z,1.95
2023-01-13T16:48:53.055Z,1.30
2023-01-13T16:51:57.051Z,1.63
2023-01-13T16:55:01.219Z,1.70
2023-01-13T16:58:06.128Z,1.80
2023-01-13T17:01:23.363Z,1.67
2023-01-13T17:04:27.665Z,1.67
2023-01-13T17:07:33.524Z,1.75
2023-01-13T17:10:37.734Z,2.08
2023-01-13T17:13:42.049Z,1.60
2023-01-13T17:16:47.036Z,1.48
2023-01-13T17:19:52.114Z,1.40
2023-01-13T17:22:58.518Z,1.67
2023-01-13T17:26:03.446Z,1.70
2023-01-13T17:29:13.006Z,1.60
2023-01-13T17:32:19.116Z,1.60
2023-01-13T17:35:25.073Z,1.65
2023-01-13T17:38:29.408Z,1.55
2023-01-13T17:41:33.403Z,1.80
2023-01-13T17:44:37.526Z,1.58
2023-01-13T17:47:41.723Z,1.60
2023-01-13T17:50:51.208Z,1.50
2023-01-13T17:53:55.357Z,1.70
2023-01-13T17:56:59.727Z,1.70
2023-01-13T18:00:05.068Z,1.30
2023-01-13T18:03:11.392Z,1.38
2023-01-13T18:06:21.823Z,1.52
2023-01-13T18:09:26.722Z,1.70
2023-01-13T18:12:30.750Z,1.80
2023-01-13T18:15:35.543Z,1.35
2023-01-13T18:18:41.947Z,2.05
2023-01-13T18:22:05.657Z,1.60
2023-01-13T18:25:30.955Z,2.15
2023-01-13T18:28:35.030Z,1.48
2023-01-13T18:31:39.360Z,1.60
2023-01-13T18:34:43.690Z,1.80
2023-01-13T18:37:47.738Z,1.45
2023-01-13T18:40:51.937Z,1.45
2023-01-13T18:43:56.257Z,1.45
2023-01-13T18:47:00.638Z,1.38
2023-01-13T18:50:05.265Z,1.50
2023-01-13T18:53:09.358Z,1.55
2023-01-13T18:56:14.240Z,1.50
2023-01-13T18:59:18.619Z,1.45
2023-01-13T19:02:23.551Z,1.50
2023-01-13T19:05:27.477Z,1.50
2023-01-13T19:08:33.517Z,1.50
2023-01-13T19:11:37.552Z,1.50
2023-01-13T19:14:42.160Z,1.35
2023-01-13T19:17:46.746Z,1.40
2023-01-13T19:20:51.133Z,1.50
2023-01-13T19:23:56.336Z,1.67
2023-01-13T19:27:00.221Z,2.00
2023-01-13T19:30:04.954Z,1.55
2023-01-13T19:33:09.232Z,1.23
2023-01-13T19:36:13.582Z,1.23
2023-01-13T19:39:17.617Z,1.58
2023-01-13T19:42:40.398Z,1.40
2023-01-13T19:45:44.881Z,1.30
2023-01-13T19:48:49.026Z,1.27
2023-01-13T19:51:53.312Z,1.42
2023-01-13T19:54:57.492Z,1.45
2023-01-13T19:58:02.159Z,1.48
2023-01-13T20:01:09.806Z,1.65
2023-01-13T20:04:14.447Z,1.30
2023-01-13T20:07:18.610Z,1.35
2023-01-13T20:10:24.519Z,1.33
2023-01-13T20:13:28.454Z,1.38
2023-01-13T20:16:33.772Z,1.42
2023-01-13T20:19:37.635Z,1.45
2023-01-13T20:22:42.099Z,1.23
2023-01-13T20:25:46.473Z,1.20
2023-01-13T20:28:50.758Z,1.40
2023-01-13T20:31:55.439Z,1.45
2023-01-13T20:34:59.402Z,1.10
2023-01-13T20:38:03.555Z,1.35
2023-01-13T20:41:26.569Z,1.35
2023-01-13T20:44:30.992Z,1.48
2023-01-13T20:47:35.066Z,1.30
2023-01-13T20:50:39.050Z,1.92
2023-01-13T20:53:42.752Z,1.58
2023-01-13T20:56:46.718Z,1.50
2023-01-13T20:59:50.703Z,1.25
2023-01-13T21:02:54.880Z,1.30
2023-01-13T21:05:58.878Z,1.55
2023-01-13T21:09:02.959Z,1.20
2023-01-13T21:12:43.117Z,1.35
2023-01-13T21:15:48.333Z,1.38
2023-01-13T21:19:07.898Z,1.48
2023-01-13T21:22:11.862Z,1.25
2023-01-13T21:25:17.588Z,1.33
2023-01-13T21:28:21.584Z,1.10
2023-01-13T21:31:27.413Z,1.10
2023-01-13T21:34:32.874Z,1.30
2023-01-13T21:37:38.243Z,1.52
2023-01-13T21:40:41.931Z,1.40
2023-01-13T21:44:04.717Z,1.73
2023-01-13T21:47:38.159Z,1.67
2023-01-13T21:50:42.404Z,1.00
2023-01-13T21:53:46.609Z,1.40
2023-01-13T21:56:50.793Z,1.30
2023-01-13T21:59:54.816Z,1.10
2023-01-13T22:03:00.017Z,1.30
2023-01-13T22:06:04.318Z,1.40
2023-01-13T22:09:08.961Z,1.30
2023-01-13T22:12:13.175Z,1.50
2023-01-13T22:15:18.033Z,1.25
2023-01-13T22:18:22.041Z,1.20
2023-01-13T22:21:26.183Z,1.23
2023-01-13T22:24:30.247Z,1.27
2023-01-13T22:27:40.428Z,1.20
2023-01-13T22:30:44.467Z,1.20
2023-01-13T22:33:48.508Z,1.10
2023-01-13T22:36:52.510Z,1.67
2023-01-13T22:39:56.511Z,1.50
2023-01-13T22:43:00.790Z,1.40
2023-01-13T22:46:08.979Z,1.13
2023-01-13T22:49:14.769Z,1.20
2023-01-13T22:52:19.086Z,1.10
2023-01-13T22:55:23.654Z,1.50
2023-01-13T22:58:28.447Z,1.40
2023-01-13T23:01:34.459Z,1.33
2023-01-13T23:04:38.788Z,1.38
2023-01-13T23:07:42.738Z,1.67
2023-01-13T23:10:46.988Z,1.23
2023-01-13T23:13:56.680Z,1.60
2023-01-13T23:17:00.829Z,1.20
2023-01-13T23:20:05.057Z,1.30
2023-01-13T23:23:09.001Z,1.40
2023-01-13T23:26:13.479Z,1.35
2023-01-13T23:29:18.240Z,1.05
2023-01-13T23:32:22.312Z,1.13
2023-01-13T23:35:26.508Z,1.15
2023-01-13T23:38:30.983Z,1.30
2023-01-13T23:41:34.967Z,1.50
2023-01-13T23:44:38.839Z,1.40
2023-01-13T23:47:43.300Z,1.02
2023-01-13T23:50:57.919Z,1.40
2023-01-13T23:54:02.144Z,1.35
2023-01-13T23:57:06.011Z,1.25
